CheckWX is a tool to help pilots better visualize weather data.  It is not intended as a substitute for an official pre-flight weather briefing.

06:49:52 UTC

KORD TAF
Chicago O'Hare International Airport
Chicago, Illinois, USA
KORD 110540Z 1106/1212 29007KT P6SM FEW250 FM111500 29010KT P6SM SCT045 BKN100 FM112200 28006KT P6SM SCT040 BKN080 PROB30 1122/1202 04009KT -TSRA BKN040CB FM120200 01008KT P6SM VCTS BKN040CB OVC100 TEMPO 1202/1205 3SM TSRA BKN030CB FM120800 03006KT P6SM BKN040

Jul-11@
06:00 UTC

Jul-11 @ 06:00 UTC

Jul-11@
15:00 UTC

Jul-11 @ 15:00 UTC

TAF KORD 110540Z 1106/1212 29007KT P6SM FEW250

Expired

Wind
  • 290° at 7 KTS
Cloud Levels
  • Few at 25,000' AGL

Jul-11@
15:00 UTC

Jul-11 @ 15:00 UTC

Jul-11@
22:00 UTC

Jul-11 @ 22:00 UTC

FM111500 29010KT P6SM SCT045 BKN100

Expired

Wind
  • 290° at 10 KTS
Cloud Levels
  • Scattered at 4,500' AGL
  • Broken at 10,000' AGL

Jul-11@
22:00 UTC

Jul-11 @ 22:00 UTC

Jul-12@
02:00 UTC

Jul-12 @ 02:00 UTC

FM112200 28006KT P6SM SCT040 BKN080

Expired

Wind
  • 280° at 6 KTS
Cloud Levels
  • Scattered at 4,000' AGL
  • Broken at 8,000' AGL

Jul-11@
22:00 UTC

Jul-11 @ 22:00 UTC

Jul-12@
02:00 UTC

Jul-12 @ 02:00 UTC

PROB30 1122/1202 04009KT -TSRA BKN040CB

Expired

Wind
  • 040° at 9 KTS
Conditions
Light Thunderstorm, Rain
Cloud Levels
  • Broken at 4,000' AGL

Jul-12@
02:00 UTC

Jul-12 @ 02:00 UTC

Jul-12@
05:00 UTC

Jul-12 @ 05:00 UTC

TEMPO 1202/1205 3SM TSRA BKN030CB

Expired

Conditions
Thunderstorm, Rain
Cloud Levels
  • Broken at 3,000' AGL

Jul-12@
02:00 UTC

Jul-12 @ 02:00 UTC

Jul-12@
08:00 UTC

Jul-12 @ 08:00 UTC

FM120200 01008KT P6SM VCTS BKN040CB OVC100

From

From Standard forecast or significant change

Wind
  • 010° at 8 KTS
Conditions
Area Thunderstorm
Cloud Levels
  • Broken at 4,000' AGL
  • Overcast at 10,000' AGL

Jul-12@
08:00 UTC

Jul-12 @ 08:00 UTC

Jul-12@
12:00 UTC

Jul-12 @ 12:00 UTC

FM120800 03006KT P6SM BKN040

From

From Standard forecast or significant change

Wind
  • 030° at 6 KTS
Cloud Levels
  • Broken at 4,000' AGL